createdAt,value
2022-11-05T00:00:45.292Z,10.10
2022-11-05T00:03:33.862Z,10.10
2022-11-05T00:06:38.464Z,10.00
2022-11-05T00:12:43.745Z,10.10
2022-11-05T00:16:00.306Z,10.10
2022-11-05T00:18:40.007Z,10.10
2022-11-05T00:21:29.876Z,10.10
2022-11-05T00:24:24.042Z,10.10
2022-11-05T00:26:58.495Z,10.10
2022-11-05T00:29:30.262Z,10.00
2022-11-05T00:31:58.757Z,10.10
2022-11-05T00:34:28.990Z,10.10
2022-11-05T00:37:00.415Z,10.00
2022-11-05T00:39:47.244Z,10.00
2022-11-05T00:42:36.536Z,10.00
2022-11-05T00:45:10.905Z,9.90
2022-11-05T00:47:58.015Z,10.00
2022-11-05T00:50:28.584Z,10.00
2022-11-05T00:53:02.304Z,10.00
2022-11-05T00:55:33.576Z,10.00
2022-11-05T00:58:06.444Z,9.70
2022-11-05T01:00:45.717Z,10.00
2022-11-05T01:03:20.355Z,10.10
2022-11-05T01:06:30.317Z,9.90
2022-11-05T01:09:06.305Z,9.90
2022-11-05T01:12:02.115Z,10.00
2022-11-05T01:14:32.286Z,9.90
2022-11-05T01:17:07.986Z,9.90
2022-11-05T01:19:36.396Z,9.90
2022-11-05T01:22:09.690Z,9.90
2022-11-05T01:25:08.140Z,9.80
2022-11-05T01:27:40.264Z,9.90
2022-11-05T01:30:13.111Z,9.90
2022-11-05T01:36:24.749Z,9.90
2022-11-05T01:39:23.030Z,9.90
2022-11-05T01:41:56.825Z,9.90
2022-11-05T01:45:07.123Z,9.90
2022-11-05T01:48:01.133Z,10.20
2022-11-05T01:50:36.115Z,9.90
2022-11-05T01:53:29.665Z,9.80
2022-11-05T02:00:00.879Z,9.90
2022-11-05T02:03:01.457Z,9.90
2022-11-05T02:05:45.560Z,9.90
2022-11-05T02:08:19.394Z,9.80
2022-11-05T02:11:16.710Z,9.80
2022-11-05T02:13:45.405Z,9.80
2022-11-05T02:16:40.794Z,9.70
2022-11-05T02:19:38.214Z,9.70
2022-11-05T02:22:32.396Z,9.80
2022-11-05T02:25:42.951Z,9.80
2022-11-05T02:28:51.061Z,9.70
2022-11-05T02:34:45.239Z,9.80
2022-11-05T02:37:16.829Z,9.70
2022-11-05T02:39:49.822Z,9.70
2022-11-05T02:42:29.212Z,9.80
2022-11-05T02:45:11.625Z,9.80
2022-11-05T02:47:44.125Z,9.80
2022-11-05T02:50:20.454Z,9.80
2022-11-05T02:53:01.854Z,9.80
2022-11-05T02:55:35.215Z,9.70
2022-11-05T02:58:11.644Z,9.70
2022-11-05T03:00:53.412Z,10.00
2022-11-05T03:03:27.312Z,9.80
2022-11-05T03:06:14.640Z,9.80
2022-11-05T03:08:57.257Z,9.80
2022-11-05T03:11:28.181Z,9.70
2022-11-05T03:14:01.521Z,9.70
2022-11-05T03:16:33.202Z,9.70
2022-11-05T03:19:13.692Z,9.70
2022-11-05T03:21:47.032Z,9.70
2022-11-05T03:24:18.349Z,9.70
2022-11-05T03:26:50.794Z,9.60
2022-11-05T03:29:23.911Z,9.60
2022-11-05T03:31:53.580Z,9.60
2022-11-05T03:34:26.858Z,9.60
2022-11-05T03:36:58.840Z,9.60
2022-11-05T03:39:30.992Z,9.60
2022-11-05T03:42:02.439Z,9.60
2022-11-05T03:44:33.008Z,9.70
2022-11-05T03:47:05.899Z,9.60
2022-11-05T03:49:37.478Z,9.60
2022-11-05T03:52:15.689Z,9.60
2022-11-05T03:54:54.233Z,9.50
2022-11-05T03:57:26.569Z,9.60
2022-11-05T03:59:54.870Z,9.60
2022-11-05T04:02:25.985Z,9.60
2022-11-05T04:04:59.368Z,9.60
2022-11-05T04:07:45.477Z,9.60
2022-11-05T04:10:34.070Z,9.60
2022-11-05T04:13:23.914Z,9.50
2022-11-05T04:16:14.582Z,9.50
2022-11-05T04:18:43.012Z,9.70
2022-11-05T04:21:37.447Z,9.50
2022-11-05T04:24:14.978Z,9.50
2022-11-05T04:26:52.923Z,9.40
2022-11-05T04:29:39.085Z,9.40
2022-11-05T04:32:08.277Z,9.50
2022-11-05T04:34:37.152Z,9.40
2022-11-05T04:37:08.448Z,9.10
2022-11-05T04:39:38.397Z,9.30
2022-11-05T04:42:08.003Z,9.30
2022-11-05T04:44:40.618Z,9.30
2022-11-05T04:47:11.862Z,9.30
2022-11-05T04:49:42.073Z,9.20
2022-11-05T04:52:12.402Z,9.20
2022-11-05T04:54:40.747Z,9.20
2022-11-05T04:57:10.205Z,9.20
2022-11-05T04:59:38.933Z,9.10
2022-11-05T05:02:08.284Z,9.40
2022-11-05T05:04:45.552Z,9.10
2022-11-05T05:07:28.840Z,9.10
2022-11-05T05:10:26.185Z,9.10
2022-11-05T05:13:50.800Z,9.00
2022-11-05T05:16:29.001Z,9.10
2022-11-05T05:18:57.619Z,9.10
2022-11-05T05:21:41.106Z,9.00
2022-11-05T05:24:12.334Z,9.00
2022-11-05T05:26:42.697Z,9.00
2022-11-05T05:29:13.230Z,9.00
2022-11-05T05:31:42.299Z,9.00
2022-11-05T05:34:14.365Z,8.90
2022-11-05T05:36:44.342Z,8.80
2022-11-05T05:39:22.733Z,8.90
2022-11-05T05:41:54.740Z,9.00
2022-11-05T05:44:26.853Z,9.10
2022-11-05T05:46:55.571Z,8.80
2022-11-05T05:49:28.360Z,8.80
2022-11-05T05:51:57.461Z,8.80
2022-11-05T05:54:32.691Z,8.80
2022-11-05T05:57:02.989Z,8.80
2022-11-05T05:59:31.357Z,8.70
2022-11-05T06:02:02.920Z,8.70
2022-11-05T06:04:31.331Z,8.60
2022-11-05T06:07:17.791Z,8.60
2022-11-05T06:09:50.631Z,8.60
2022-11-05T06:12:23.561Z,8.60
2022-11-05T06:14:52.132Z,8.50
2022-11-05T06:17:20.561Z,8.50
2022-11-05T06:19:49.421Z,8.50
2022-11-05T06:22:18.234Z,8.50
2022-11-05T06:24:48.575Z,8.50
2022-11-05T06:27:21.432Z,8.50
2022-11-05T06:29:50.030Z,8.40
2022-11-05T06:32:19.853Z,8.40
2022-11-05T06:34:48.390Z,8.40
2022-11-05T06:37:16.740Z,8.50
2022-11-05T06:39:45.049Z,8.50
2022-11-05T06:42:19.599Z,8.40
2022-11-05T06:44:49.519Z,8.40
2022-11-05T06:47:21.052Z,8.40
2022-11-05T06:49:50.050Z,8.40
2022-11-05T06:52:18.772Z,8.50
2022-11-05T06:54:48.669Z,8.50
2022-11-05T07:00:04.518Z,8.50
2022-11-05T07:02:36.095Z,8.60
2022-11-05T07:05:04.877Z,8.60
2022-11-05T07:07:33.793Z,8.60
2022-11-05T07:10:02.305Z,8.60
2022-11-05T07:12:38.216Z,8.60
2022-11-05T07:15:13.428Z,8.60
2022-11-05T07:17:42.361Z,8.60
2022-11-05T07:20:11.600Z,8.50
2022-11-05T07:22:40.089Z,8.50
2022-11-05T07:25:08.958Z,8.50
2022-11-05T07:27:41.906Z,8.70
2022-11-05T07:30:13.465Z,8.60
2022-11-05T07:32:45.404Z,8.60
2022-11-05T07:35:15.286Z,8.60
2022-11-05T07:37:45.510Z,8.60
2022-11-05T07:40:14.859Z,8.70
2022-11-05T07:42:47.000Z,8.80
2022-11-05T07:45:15.810Z,8.80
2022-11-05T07:47:48.230Z,8.90
2022-11-05T07:50:18.609Z,8.90
2022-11-05T07:52:48.152Z,8.90
2022-11-05T07:55:16.984Z,8.90
2022-11-05T07:57:47.534Z,9.00
2022-11-05T08:00:17.183Z,9.10
2022-11-05T08:02:46.061Z,9.10
2022-11-05T08:05:15.074Z,9.10
2022-11-05T08:07:46.015Z,9.20
2022-11-05T08:10:14.441Z,9.20
2022-11-05T08:12:56.541Z,9.30
2022-11-05T08:15:25.184Z,9.40
2022-11-05T08:18:00.265Z,9.40
2022-11-05T08:20:29.003Z,9.50
2022-11-05T08:22:57.324Z,9.70
2022-11-05T08:25:26.112Z,9.80
2022-11-05T08:28:00.375Z,9.90
2022-11-05T08:30:38.522Z,10.00
2022-11-05T08:33:08.168Z,9.90
2022-11-05T08:35:37.063Z,10.10
2022-11-05T08:38:06.295Z,10.10
2022-11-05T08:40:39.625Z,10.20
2022-11-05T08:43:17.207Z,10.20
2022-11-05T08:45:45.646Z,10.40
2022-11-05T08:48:15.191Z,10.40
2022-11-05T08:50:44.083Z,10.30
2022-11-05T08:53:13.636Z,10.40
2022-11-05T08:55:44.171Z,10.40
2022-11-05T08:58:15.292Z,10.40
2022-11-05T09:00:44.814Z,10.50
2022-11-05T09:03:13.733Z,10.60
2022-11-05T09:05:43.251Z,10.70
2022-11-05T09:08:13.135Z,10.80
2022-11-05T09:10:41.876Z,10.80
2022-11-05T09:13:17.908Z,10.90
2022-11-05T09:15:49.245Z,11.00
2022-11-05T09:18:18.098Z,11.00
2022-11-05T09:20:46.764Z,11.00
2022-11-05T09:23:16.085Z,11.00
2022-11-05T09:25:52.708Z,11.00
2022-11-05T09:28:22.574Z,11.00
2022-11-05T09:30:55.105Z,11.10
2022-11-05T09:33:25.364Z,11.20
2022-11-05T09:35:54.251Z,11.10
2022-11-05T09:38:26.914Z,11.10
2022-11-05T09:41:00.012Z,11.10
2022-11-05T09:43:32.054Z,11.20
2022-11-05T09:46:04.525Z,11.20
2022-11-05T09:48:34.171Z,11.30
2022-11-05T09:51:06.705Z,11.40
2022-11-05T09:53:37.418Z,11.40
2022-11-05T09:56:37.589Z,11.40
2022-11-05T09:59:07.767Z,11.20
2022-11-05T10:04:31.799Z,11.50
2022-11-05T10:07:01.455Z,11.60
2022-11-05T10:09:32.939Z,11.60
2022-11-05T10:12:05.757Z,11.60
2022-11-05T10:14:38.173Z,11.60
2022-11-05T10:17:11.673Z,11.50
2022-11-05T10:19:45.539Z,11.60
2022-11-05T10:22:16.504Z,11.60
2022-11-05T10:24:47.708Z,11.60
2022-11-05T10:27:17.926Z,11.60
2022-11-05T10:29:47.721Z,11.60
2022-11-05T10:32:26.572Z,11.60
2022-11-05T10:34:58.742Z,11.70
2022-11-05T10:37:28.281Z,11.60
2022-11-05T10:39:56.912Z,11.70
2022-11-05T10:42:41.441Z,11.70
2022-11-05T10:45:15.335Z,11.70
2022-11-05T10:47:50.206Z,11.80
2022-11-05T10:50:21.513Z,11.90
2022-11-05T10:52:55.840Z,12.00
2022-11-05T10:55:26.579Z,12.10
2022-11-05T10:57:55.341Z,12.10
2022-11-05T11:00:28.585Z,12.10
2022-11-05T11:02:58.362Z,12.20
2022-11-05T11:05:30.751Z,12.50
2022-11-05T11:08:02.061Z,13.20
2022-11-05T11:10:32.131Z,13.20
2022-11-05T11:13:00.586Z,13.50
2022-11-05T11:15:32.765Z,13.30
2022-11-05T11:18:18.956Z,13.00
2022-11-05T11:20:50.512Z,12.90
2022-11-05T11:23:18.968Z,12.80
2022-11-05T11:25:48.576Z,12.80
2022-11-05T11:28:19.280Z,12.80
2022-11-05T11:30:57.551Z,12.70
2022-11-05T11:33:28.628Z,12.70
2022-11-05T11:35:59.166Z,12.80
2022-11-05T11:38:30.547Z,13.00
2022-11-05T11:41:03.099Z,13.20
2022-11-05T11:43:34.527Z,13.30
2022-11-05T11:46:07.707Z,13.40
2022-11-05T11:48:41.961Z,13.40
2022-11-05T11:51:21.914Z,13.30
2022-11-05T11:53:52.163Z,13.30
2022-11-05T11:56:21.490Z,13.30
2022-11-05T11:58:50.880Z,13.30
2022-11-05T12:01:29.926Z,13.30
2022-11-05T12:04:01.185Z,13.40
2022-11-05T12:06:33.593Z,13.10
2022-11-05T12:09:06.946Z,12.80
2022-11-05T12:11:39.022Z,12.60
2022-11-05T12:14:12.492Z,12.40
2022-11-05T12:16:51.334Z,12.30
2022-11-05T12:19:25.524Z,12.10
2022-11-05T12:21:57.665Z,12.10
2022-11-05T12:24:34.541Z,12.10
2022-11-05T12:27:11.263Z,12.10
2022-11-05T12:29:46.156Z,12.10
2022-11-05T12:32:29.363Z,12.20
2022-11-05T12:35:02.716Z,12.30
2022-11-05T12:37:35.152Z,12.50
2022-11-05T12:40:19.581Z,12.70
2022-11-05T12:42:54.054Z,12.80
2022-11-05T12:45:28.781Z,12.80
2022-11-05T12:48:04.561Z,12.80
2022-11-05T12:50:37.212Z,12.70
2022-11-05T12:56:28.433Z,12.70
2022-11-05T12:59:10.535Z,12.80
2022-11-05T13:30:04.502Z,12.00
2022-11-05T13:32:35.102Z,12.00
2022-11-05T13:35:04.333Z,12.00
2022-11-05T13:37:53.134Z,12.00
2022-11-05T13:40:25.759Z,12.10
2022-11-05T13:43:04.296Z,12.20
2022-11-05T13:45:52.092Z,12.20
2022-11-05T13:48:41.131Z,12.20
2022-11-05T13:51:24.433Z,12.20
2022-11-05T13:53:58.365Z,12.10
2022-11-05T13:56:32.561Z,12.10
2022-11-05T13:59:06.968Z,12.00
2022-11-05T14:01:44.840Z,12.00
2022-11-05T14:04:17.979Z,12.00
2022-11-05T14:06:46.391Z,12.00
2022-11-05T14:09:20.427Z,12.00
2022-11-05T14:11:50.989Z,12.00
2022-11-05T14:14:22.860Z,12.00
2022-11-05T14:16:52.818Z,12.00
2022-11-05T14:19:30.339Z,12.00
2022-11-05T14:21:59.035Z,12.10
2022-11-05T14:24:47.449Z,12.00
2022-11-05T14:27:49.338Z,12.10
2022-11-05T14:30:40.826Z,12.10
2022-11-05T14:33:32.282Z,12.00
2022-11-05T14:36:22.607Z,12.00
2022-11-05T14:38:52.529Z,11.90
2022-11-05T14:41:21.580Z,11.90
2022-11-05T14:43:55.699Z,11.80
2022-11-05T14:46:24.187Z,11.80
2022-11-05T14:48:55.269Z,11.80
2022-11-05T14:51:28.408Z,11.80
2022-11-05T14:54:06.069Z,11.70
2022-11-05T14:56:44.128Z,11.70
2022-11-05T14:59:28.442Z,11.60
2022-11-05T15:01:58.325Z,11.60
2022-11-05T15:04:29.622Z,11.50
2022-11-05T15:07:15.137Z,11.50
2022-11-05T15:09:47.047Z,11.40
2022-11-05T15:12:19.469Z,11.30
2022-11-05T15:14:57.674Z,11.30
2022-11-05T15:17:30.413Z,11.30
2022-11-05T15:20:09.561Z,11.50
2022-11-05T15:22:41.719Z,11.40
2022-11-05T15:25:17.324Z,11.30
2022-11-05T15:27:51.204Z,11.10
2022-11-05T15:30:21.684Z,11.10
2022-11-05T15:32:50.994Z,11.00
2022-11-05T15:35:22.309Z,11.00
2022-11-05T15:38:00.349Z,10.90
2022-11-05T15:40:31.612Z,10.80
2022-11-05T15:43:35.031Z,10.70
2022-11-05T15:46:13.878Z,10.60
2022-11-05T15:48:42.624Z,10.60
2022-11-05T15:51:13.590Z,10.60
2022-11-05T15:56:50.006Z,10.50
2022-11-05T15:59:21.828Z,10.50
2022-11-05T16:01:51.201Z,10.40
2022-11-05T16:04:21.422Z,10.30
2022-11-05T16:06:53.312Z,10.30
2022-11-05T16:09:23.217Z,10.30
2022-11-05T16:11:55.194Z,10.20
2022-11-05T16:14:23.583Z,10.10
2022-11-05T16:16:52.214Z,10.10
2022-11-05T16:19:40.145Z,10.00
2022-11-05T16:22:11.311Z,10.00
2022-11-05T16:24:40.012Z,9.90
2022-11-05T16:27:09.135Z,9.90
2022-11-05T16:29:38.683Z,9.90
2022-11-05T16:32:08.585Z,9.90
2022-11-05T16:34:38.965Z,9.90
2022-11-05T16:37:08.642Z,9.80
2022-11-05T16:39:39.123Z,9.80
2022-11-05T16:42:21.883Z,9.80
2022-11-05T16:44:50.212Z,9.80
2022-11-05T16:47:21.592Z,9.70
2022-11-05T16:49:50.342Z,9.70
2022-11-05T16:52:18.758Z,9.70
2022-11-05T16:54:48.479Z,9.70
2022-11-05T16:57:20.910Z,9.70
2022-11-05T16:59:49.148Z,9.60
2022-11-05T17:02:17.770Z,9.60
2022-11-05T17:04:46.312Z,9.60
2022-11-05T17:07:14.688Z,9.50
2022-11-05T17:09:43.060Z,9.50
2022-11-05T17:12:13.421Z,9.50
2022-11-05T17:14:41.701Z,9.50
2022-11-05T17:17:10.112Z,9.40
2022-11-05T17:19:43.088Z,9.40
2022-11-05T17:22:12.560Z,9.40
2022-11-05T17:24:40.849Z,9.40
2022-11-05T17:27:13.572Z,9.30
2022-11-05T17:29:43.559Z,9.30
2022-11-05T17:32:12.009Z,9.30
2022-11-05T17:34:40.985Z,9.30
2022-11-05T17:37:09.388Z,9.30
2022-11-05T17:39:37.981Z,9.20
2022-11-05T17:42:06.918Z,9.20
2022-11-05T17:44:35.678Z,9.20
2022-11-05T17:47:06.618Z,9.20
2022-11-05T17:49:36.678Z,9.10
2022-11-05T17:52:05.199Z,9.10
2022-11-05T17:54:33.618Z,9.00
2022-11-05T17:57:02.572Z,9.00
2022-11-05T17:59:31.290Z,9.00
2022-11-05T18:02:00.194Z,9.00
2022-11-05T18:04:30.049Z,9.00
2022-11-05T18:06:58.973Z,9.00
2022-11-05T18:09:28.087Z,8.90
2022-11-05T18:11:57.309Z,8.90
2022-11-05T18:14:26.865Z,8.90
2022-11-05T18:17:00.960Z,8.80
2022-11-05T18:19:31.272Z,8.80
2022-11-05T18:22:00.930Z,8.90
2022-11-05T18:24:30.251Z,8.90
2022-11-05T18:27:05.240Z,8.80
2022-11-05T18:29:33.709Z,8.70
2022-11-05T18:32:02.832Z,8.60
2022-11-05T18:34:33.352Z,8.60
2022-11-05T18:37:03.442Z,8.50
2022-11-05T18:39:35.030Z,8.50
2022-11-05T18:42:05.125Z,8.40
2022-11-05T18:44:39.190Z,8.40
2022-11-05T18:47:11.574Z,8.30
2022-11-05T18:49:42.540Z,8.30
2022-11-05T18:52:13.102Z,8.20
2022-11-05T18:54:43.540Z,8.20
2022-11-05T18:57:12.126Z,8.20
2022-11-05T18:59:42.668Z,8.10
2022-11-05T19:02:12.453Z,8.10
2022-11-05T19:05:00.276Z,8.00
2022-11-05T19:07:32.298Z,8.10
2022-11-05T19:10:12.937Z,8.10
2022-11-05T19:15:50.648Z,8.00
2022-11-05T19:18:19.070Z,8.00
2022-11-05T19:20:49.588Z,8.00
2022-11-05T19:23:19.843Z,8.00
2022-11-05T19:25:48.819Z,7.90
2022-11-05T19:28:20.338Z,7.90
2022-11-05T19:30:58.099Z,7.90
2022-11-05T19:36:59.060Z,7.80
2022-11-05T19:42:39.085Z,7.80
2022-11-05T19:45:42.889Z,7.70
2022-11-05T19:47:59.080Z,7.80
2022-11-05T19:50:28.173Z,7.70
2022-11-05T19:52:59.068Z,7.70
2022-11-05T19:55:30.850Z,7.60
2022-11-05T19:58:05.428Z,7.60
2022-11-05T20:01:13.028Z,7.60
2022-11-05T20:04:02.827Z,7.70
2022-11-05T20:06:46.269Z,7.60
2022-11-05T20:09:22.173Z,7.60
2022-11-05T20:11:58.039Z,7.40
2022-11-05T20:14:27.711Z,7.60
2022-11-05T20:16:56.900Z,7.60
2022-11-05T20:19:26.024Z,7.70
2022-11-05T20:21:59.766Z,7.60
2022-11-05T20:24:29.745Z,7.70
2022-11-05T20:27:01.619Z,7.70
2022-11-05T20:29:35.383Z,7.70
2022-11-05T20:32:05.579Z,7.70
2022-11-05T20:34:35.670Z,7.60
2022-11-05T20:37:05.429Z,7.60
2022-11-05T20:39:36.181Z,7.70
2022-11-05T20:42:05.324Z,7.70
2022-11-05T20:44:33.858Z,7.70
2022-11-05T20:47:04.399Z,7.70
2022-11-05T20:49:43.609Z,7.70
2022-11-05T20:52:29.081Z,7.70
2022-11-05T20:55:32.529Z,7.90
2022-11-05T20:58:03.850Z,7.60
2022-11-05T21:01:09.515Z,7.50
2022-11-05T21:03:52.057Z,7.50
2022-11-05T21:06:23.769Z,7.30
2022-11-05T21:36:37.080Z,7.10
2022-11-05T21:39:22.798Z,7.10
2022-11-05T21:42:08.559Z,7.10
2022-11-05T21:45:00.036Z,7.10
2022-11-05T21:47:46.688Z,7.10
2022-11-05T21:50:52.499Z,7.00
2022-11-05T21:53:39.839Z,7.00
2022-11-05T21:56:26.315Z,7.10
2022-11-05T21:59:12.460Z,7.00
2022-11-05T22:01:40.942Z,7.00
2022-11-05T22:04:09.938Z,7.00
2022-11-05T22:06:46.978Z,7.00
2022-11-05T22:09:17.219Z,7.00
2022-11-05T22:11:45.589Z,7.00
2022-11-05T22:14:14.099Z,6.90
2022-11-05T22:16:42.819Z,6.90
2022-11-05T22:19:11.479Z,6.90
2022-11-05T22:21:39.999Z,6.90
2022-11-05T22:24:12.699Z,6.80
2022-11-05T22:26:43.200Z,6.60
2022-11-05T22:29:12.092Z,6.80
2022-11-05T22:31:40.918Z,6.80
2022-11-05T22:34:11.126Z,6.70
2022-11-05T22:36:39.949Z,6.70
2022-11-05T22:39:09.437Z,6.70
2022-11-05T22:41:40.868Z,6.70
2022-11-05T22:44:10.930Z,6.70
2022-11-05T22:46:39.662Z,6.70
2022-11-05T22:49:08.477Z,6.60
2022-11-05T22:51:37.717Z,6.50
2022-11-05T22:54:06.449Z,6.50
2022-11-05T22:56:35.577Z,6.50
2022-11-05T22:59:04.407Z,6.50
2022-11-05T23:01:34.480Z,6.50
2022-11-05T23:04:02.907Z,6.50
2022-11-05T23:06:49.501Z,6.50
2022-11-05T23:09:35.747Z,6.50
2022-11-05T23:12:05.115Z,6.50
2022-11-05T23:14:33.428Z,6.50
2022-11-05T23:17:20.317Z,6.40
2022-11-05T23:20:06.090Z,6.40
2022-11-05T23:22:51.707Z,6.40
2022-11-05T23:25:21.536Z,6.40
2022-11-05T23:27:51.348Z,6.40
2022-11-05T23:30:20.822Z,6.50
2022-11-05T23:32:50.121Z,6.50
2022-11-05T23:35:38.602Z,6.50
2022-11-05T23:38:24.346Z,6.50
2022-11-05T23:41:24.764Z,6.50
2022-11-05T23:44:10.278Z,6.50
2022-11-05T23:46:56.157Z,6.50
2022-11-05T23:49:43.248Z,6.50
2022-11-05T23:52:28.927Z,6.50
2022-11-05T23:55:14.260Z,6.50
2022-11-05T23:57:59.917Z,6.50
